Meskill, Texas
Current Conditions -  °F | °C
As of 12:52 PM on Tuesday 21 Oct 2014 (Local Time) from KGLS Reporting Station
Clear Clear  
Wind Chill: 78°   Ceiling: Unl
Heat Index: 80°   Visibility: 10mi
Dew Point: 64°   Wind: 13mph
Humidity: 62%   Direction: 50°NE
Pressure: 30.04"   Gusts: NA
Location:  29.3796°N, 94.9168°W
Report Text: KGLS 211752Z 05011KT 10SM CLR 26/18 A3004 RMK AO2 SLP170 T02560178 10261 20194 58007
Loading
Personal Weather Stations






























Interactive Weather Map
Tropical Storm Tracking
New forecast layout! Learn more

10-Day Weather Forecast

Advertisements
Track Severe Weather on mobile